CMP153 SEQM-MPTO
Flight info
| Callsign | CMP153 |
|---|---|
| Flight time | N/A |
| Altitude | 34000 |
| Route | NEGA3A NEGAL UM674 MILAT SIRIL3 |
| Aircraft | B38M/M-SDE3FGHIRWY/S |
Departure
| Time | N/A |
|---|---|
| Airport | Mariscal Sucre International Airport (SEQM) |
Arrival
| Time | 2026-04-27 00:33 |
|---|---|
| Airport | Tocumen International Airport (MPTO) |
| Time | Latitude | Longitude | Altitude | Speed | Heading |
|---|---|---|---|---|---|
| 2026-04-27 00:14 | 7.45461 | -79.45672 | 31093 ft | 475 kts | 351° |
| 2026-04-27 00:15 | 7.48766 | -79.46197 | 30226 ft | 487 kts | 352° |
| 2026-04-27 00:15 | 7.52150 | -79.46735 | 29342 ft | 497 kts | 352° |
| 2026-04-27 00:15 | 7.55576 | -79.47280 | 28457 ft | 500 kts | 352° |
| 2026-04-27 00:15 | 7.59020 | -79.47828 | 27579 ft | 501 kts | 352° |
| 2026-04-27 00:16 | 7.62455 | -79.48375 | 26702 ft | 501 kts | 352° |
| 2026-04-27 00:16 | 7.65884 | -79.48920 | 25835 ft | 494 kts | 352° |
| 2026-04-27 00:16 | 7.69257 | -79.49457 | 24976 ft | 486 kts | 352° |
| 2026-04-27 00:16 | 7.72565 | -79.49983 | 24128 ft | 477 kts | 352° |
| 2026-04-27 00:17 | 7.75821 | -79.50501 | 23289 ft | 468 kts | 352° |
| 2026-04-27 00:17 | 7.79012 | -79.51010 | 22453 ft | 461 kts | 352° |
| 2026-04-27 00:17 | 7.82152 | -79.51510 | 21632 ft | 454 kts | 352° |
| 2026-04-27 00:17 | 7.85246 | -79.52002 | 20813 ft | 447 kts | 351° |
| 2026-04-27 00:18 | 7.88304 | -79.52489 | 20000 ft | 441 kts | 351° |
| 2026-04-27 00:18 | 7.91311 | -79.52968 | 19196 ft | 435 kts | 351° |
| 2026-04-27 00:18 | 7.94279 | -79.53441 | 18393 ft | 429 kts | 351° |
| 2026-04-27 00:18 | 7.97211 | -79.53908 | 17603 ft | 424 kts | 351° |
| 2026-04-27 00:19 | 8.00104 | -79.54369 | 16817 ft | 418 kts | 351° |
| 2026-04-27 00:19 | 8.02953 | -79.54823 | 16046 ft | 412 kts | 351° |
| 2026-04-27 00:19 | 8.05773 | -79.55273 | 15280 ft | 406 kts | 351° |
| 2026-04-27 00:19 | 8.08562 | -79.55567 | 14504 ft | 401 kts | 1° |
| 2026-04-27 00:20 | 8.11334 | -79.55388 | 13835 ft | 397 kts | 3° |
| 2026-04-27 00:20 | 8.14051 | -79.55204 | 13289 ft | 394 kts | 4° |
| 2026-04-27 00:20 | 8.16767 | -79.55010 | 12753 ft | 391 kts | 4° |
| 2026-04-27 00:20 | 8.19468 | -79.54812 | 12219 ft | 387 kts | 4° |
| 2026-04-27 00:21 | 8.22141 | -79.54614 | 11689 ft | 383 kts | 4° |
| 2026-04-27 00:21 | 8.24795 | -79.54417 | 11169 ft | 381 kts | 4° |
| 2026-04-27 00:21 | 8.27430 | -79.54221 | 10638 ft | 379 kts | 4° |
| 2026-04-27 00:21 | 8.30049 | -79.54026 | 10133 ft | 376 kts | 4° |
| 2026-04-27 00:22 | 8.32644 | -79.53834 | 9621 ft | 373 kts | 4° |
| 2026-04-27 00:22 | 8.35225 | -79.53641 | 9119 ft | 369 kts | 4° |
| 2026-04-27 00:22 | 8.37776 | -79.53452 | 8607 ft | 367 kts | 4° |
| 2026-04-27 00:22 | 8.40321 | -79.53262 | 8098 ft | 364 kts | 4° |
| 2026-04-27 00:23 | 8.42815 | -79.53077 | 7605 ft | 361 kts | 4° |
| 2026-04-27 00:23 | 8.45312 | -79.52892 | 7105 ft | 359 kts | 4° |
| 2026-04-27 00:23 | 8.47790 | -79.52707 | 6608 ft | 356 kts | 4° |
| 2026-04-27 00:23 | 8.50250 | -79.52525 | 6121 ft | 353 kts | 4° |
| 2026-04-27 00:24 | 8.52647 | -79.52346 | 5772 ft | 347 kts | 4° |
| 2026-04-27 00:24 | 8.55053 | -79.52166 | 5577 ft | 336 kts | 4° |
| 2026-04-27 00:24 | 8.57344 | -79.51996 | 5390 ft | 324 kts | 4° |
| 2026-04-27 00:24 | 8.59567 | -79.51830 | 5216 ft | 315 kts | 4° |
| 2026-04-27 00:25 | 8.61716 | -79.51670 | 5054 ft | 304 kts | 4° |
| 2026-04-27 00:25 | 8.63794 | -79.51516 | 4896 ft | 295 kts | 4° |
| 2026-04-27 00:25 | 8.65810 | -79.51366 | 4750 ft | 286 kts | 4° |
| 2026-04-27 00:25 | 8.67762 | -79.51221 | 4605 ft | 277 kts | 4° |
| 2026-04-27 00:26 | 8.69634 | -79.51081 | 4472 ft | 269 kts | 4° |
| 2026-04-27 00:26 | 8.71474 | -79.50944 | 4338 ft | 261 kts | 4° |
| 2026-04-27 00:26 | 8.73260 | -79.50811 | 4212 ft | 253 kts | 4° |
| 2026-04-27 00:26 | 8.74982 | -79.50683 | 4083 ft | 245 kts | 4° |
| 2026-04-27 00:27 | 8.76660 | -79.50557 | 3948 ft | 237 kts | 4° |
| 2026-04-27 00:27 | 8.78267 | -79.50433 | 3819 ft | 228 kts | 8° |
| 2026-04-27 00:27 | 8.79762 | -79.50013 | 3665 ft | 219 kts | 20° |
| 2026-04-27 00:27 | 8.81167 | -79.49510 | 3546 ft | 210 kts | 19° |
| 2026-04-27 00:28 | 8.82528 | -79.49032 | 3439 ft | 209 kts | 19° |
| 2026-04-27 00:28 | 8.83938 | -79.48532 | 3318 ft | 219 kts | 19° |
| 2026-04-27 00:28 | 8.85393 | -79.48017 | 3180 ft | 223 kts | 19° |
| 2026-04-27 00:28 | 8.86856 | -79.47497 | 3055 ft | 223 kts | 20° |
| 2026-04-27 00:29 | 8.88313 | -79.46979 | 2901 ft | 218 kts | 20° |
| 2026-04-27 00:29 | 8.89704 | -79.46484 | 2751 ft | 207 kts | 20° |
| 2026-04-27 00:29 | 8.91039 | -79.46009 | 2538 ft | 200 kts | 20° |
| 2026-04-27 00:29 | 8.92313 | -79.45557 | 2345 ft | 184 kts | 20° |
| 2026-04-27 00:30 | 8.93479 | -79.45141 | 2183 ft | 175 kts | 21° |
| 2026-04-27 00:30 | 8.94632 | -79.44730 | 2033 ft | 176 kts | 20° |
| 2026-04-27 00:30 | 8.95789 | -79.44318 | 1924 ft | 176 kts | 21° |
| 2026-04-27 00:30 | 8.96878 | -79.43756 | 1750 ft | 173 kts | 33° |
| 2026-04-27 00:31 | 8.97851 | -79.43140 | 1544 ft | 163 kts | 31° |
| 2026-04-27 00:31 | 8.98828 | -79.42578 | 1303 ft | 161 kts | 28° |
| 2026-04-27 00:31 | 8.99810 | -79.42034 | 1056 ft | 157 kts | 30° |
| 2026-04-27 00:31 | 9.00739 | -79.41514 | 849 ft | 154 kts | 30° |
| 2026-04-27 00:32 | 9.01675 | -79.40992 | 671 ft | 153 kts | 30° |
| 2026-04-27 00:32 | 9.02610 | -79.40474 | 461 ft | 154 kts | 30° |
| 2026-04-27 00:32 | 9.03564 | -79.39939 | 269 ft | 156 kts | 30° |
| 2026-04-27 00:32 | 9.04489 | -79.39413 | 94 ft | 151 kts | 30° |
| 2026-04-27 00:33 | 9.05378 | -79.38909 | 34 ft | 135 kts | 30° |
| 2026-04-27 00:33 | 9.06001 | -79.38555 | 34 ft | 75 kts | 30° |
| 2026-04-27 00:33 | 9.06362 | -79.38374 | 32 ft | 43 kts | 5° |
| 2026-04-27 00:33 | 9.06523 | -79.38376 | 32 ft | 19 kts | 359° |
| 2026-04-27 00:34 | 9.06647 | -79.38408 | 32 ft | 20 kts | 310° |
| 2026-04-27 00:34 | 9.06599 | -79.38490 | 32 ft | 13 kts | 216° |
| 2026-04-27 00:34 | 9.06609 | -79.38547 | 32 ft | 9 kts | 307° |
| 2026-04-27 00:34 | 9.06635 | -79.38591 | 32 ft | 3 kts | 299° |
| 2026-04-27 00:35 | 9.06637 | -79.38595 | 32 ft | 0 kts | 300° |